ADDS METAR Data INFO
IDs: Format: Raw Decoded Include TAF

Data at: 1053 UTC 20 Sep 2017

KT20 201035Z AUTO 12003KT 5SM BR SCT004 BKN008 OVC021 25/25 A2989 RMK AO2 T02470247
KT20 201015Z AUTO 13003KT 5SM BR SCT004 SCT008 OVC016 25/25 A2988 RMK AO2 T02470247
KT20 200955Z AUTO 14003KT 5SM BR BKN004 BKN008 25/25 A2988 RMK AO2 T02460246
KT20 200935Z AUTO 13003KT 5SM BR BKN004 25/25 A2987 RMK AO2 T02460246
KT20 200915Z AUTO 14004KT 5SM BR BKN004 25/25 A2987 RMK AO2 T02480248
KT20 200855Z AUTO 14006KT 7SM CLR 25/25 A2987 RMK AO2 T02500250
KT20 200835Z AUTO 16005KT 10SM CLR 25/25 A2987 RMK AO2 T02500250
KT20 200815Z AUTO 16006KT 10SM SCT014 26/26 A2988 RMK AO2 T02550255
KT20 200755Z AUTO 17005KT 10SM CLR 25/25 A2988 RMK AO2 T02530253
KT20 200735Z AUTO 17004KT 10SM SCT014 25/25 A2989 RMK AO2 T02530253
KT20 200715Z AUTO 17004KT 10SM SCT014 25/25 A2989 RMK AO2 T02530253
KT20 200655Z AUTO 17006KT 10SM SCT016 26/26 A2989 RMK AO2 T02550255
KT20 200635Z AUTO 18006KT 10SM CLR 25/25 A2988 RMK AO2 T02530253
KT20 200615Z AUTO 17006KT 10SM CLR 26/26 A2988 RMK AO2 T02550255
KT20 200555Z AUTO 18005KT 10SM BKN012 26/25 A2988 RMK AO2 T02550254 10312 20255 403420255
KT20 200535Z AUTO 17005KT 10SM SCT014 26/26 A2988 RMK AO2 T02570255
KT20 200515Z AUTO 17006KT 10SM CLR 26/25 A2989 RMK AO2 T02590253
KT20 200455Z AUTO 15008KT 10SM CLR 26/25 A2988 RMK AO2 T02610253
KT20 200435Z AUTO 16006KT 10SM CLR 26/25 A2988 RMK AO2 T02620252
KT20 200415Z AUTO 15007KT 10SM CLR 26/25 A2988 RMK AO2 T02640252
KT20 200355Z AUTO 15004KT 10SM CLR 27/25 A2987 RMK AO2 T02650250
KT20 200335Z AUTO 17007KT 10SM CLR 27/25 A2986 RMK AO2 T02670248
KT20 200315Z AUTO 16007KT 10SM CLR 27/25 A2985 RMK AO2 T02710246
KT20 200255Z AUTO 15008KT 10SM CLR 28/25 A2984 RMK AO2 T02750248
KT20 200235Z AUTO 15010G14KT 10SM CLR 28/25 A2985 RMK AO2 T02770251
KT20 200215Z AUTO 15010G14KT 10SM CLR 28/25 A2986 RMK AO2 T02820254
KT20 200155Z AUTO 15009KT 10SM CLR 29/26 A2986 RMK AO2 T02850255
KT20 200135Z AUTO 15008KT 10SM CLR 29/25 A2985 RMK AO2 T02880253
KT20 200115Z AUTO 16009KT 10SM CLR 29/25 A2985 RMK AO2 T02930247
KT20 200055Z AUTO 15005KT 10SM CLR 30/24 A2984 RMK AO2 LTG DSNT SW T02960242
KT20 200035Z AUTO 15007KT 10SM CLR 30/24 A2984 RMK AO2 T03040237
KT20 200015Z AUTO 16008KT 10SM CLR 31/24 A2984 RMK AO2 T03070240
KT20 192355Z AUTO 16007KT 10SM CLR 31/24 A2984 RMK AO2 T03120237 10342 20307
KT20 192335Z AUTO 16006KT 10SM CLR 32/24 A2984 RMK AO2 T03190240
KT20 192315Z AUTO 10SM CLR 33/24 A2982 RMK AO2 T03270242
KT20 192255Z AUTO 16009KT 10SM CLR 33/24 A2982 RMK AO2 T03300241
KT20 192235Z AUTO 16006KT 130V190 10SM SCT047 33/25 A2982 RMK AO2 T03330248
KT20 192215Z AUTO 15009KT 10SM SCT047 33/24 A2982 RMK AO2 LTG DSNT SW T03330244
KT20 192155Z AUTO 18010G14KT 10SM CLR 34/25 A2982 RMK AO2 T03350245
KT20 192135Z AUTO 13009KT 10SM SCT043 34/25 A2983 RMK AO2 T03380248
KT20 192115Z AUTO 15009KT 10SM CLR 34/25 A2984 RMK AO2 T03370247
KT20 192055Z AUTO 15008KT 10SM CLR 34/25 A2985 RMK AO2 T03350246
KT20 192035Z AUTO 17008KT 10SM CLR 34/25 A2985 RMK AO2 T03400248
KT20 192015Z AUTO 16009G15KT 10SM SCT038 34/25 A2987 RMK AO2 T03360246
KT20 191955Z AUTO 16010KT 10SM SCT038 33/25 A2987 RMK AO2 T03300249
KT20 191935Z AUTO 16007KT 10SM SCT036 SCT042 33/26 A2988 RMK AO2 T03340256
KT20 191915Z AUTO 16009G15KT 10SM SCT033 SCT041 SCT050 33/26 A2989 RMK AO2 T03320260
KT20 191855Z AUTO 14008KT 10SM SCT033 BKN041 BKN050 32/26 A2991 RMK AO2 T03160256
KT20 191835Z AUTO 14012KT 10SM SCT031 32/26 A2992 RMK AO2 T03180257
KT20 191815Z AUTO 15009KT 10SM CLR 31/26 A2992 RMK AO2 T03140259
KT20 191755Z AUTO 16009KT 10SM CLR 31/25 A2993 RMK AO2 T03060249 10320 20259
KT20 191735Z AUTO 15012KT 10SM SCT023 31/25 A2995 RMK AO2 T03070246
KT20 191715Z AUTO 14010G14KT 10SM SCT023 SCT028 32/26 A2995 RMK AO2 T03190264
KT20 191655Z AUTO 19010G15KT 10SM CLR 31/25 A2996 RMK AO2 T03060250
KT20 191635Z AUTO 17010G14KT 10SM CLR 32/26 A2996 RMK AO2 T03150257
KT20 191615Z AUTO 19008KT 10SM SCT022 SCT030 SCT041 31/26 A2997 RMK AO2 T03060264
KT20 191555Z AUTO 17009KT 10SM SCT022 SCT030 BKN041 31/27 A2997 RMK AO2 T03070266
KT20 191535Z AUTO 16009KT 10SM SCT016 29/27 A2997 RMK AO2 T02930266
KT20 191515Z AUTO 19010KT 10SM SCT014 SCT022 BKN038 29/26 A2997 RMK AO2 T02900263
KT20 191455Z AUTO 18008KT 10SM BKN012 OVC022 29/27 A2997 RMK AO2 LTG DSNT N T02880270
KT20 191435Z AUTO 17008KT 10SM BKN010 BKN015 OVC022 28/27 A2997 RMK AO2 T02760270
KT20 191415Z AUTO 16006KT 7SM BKN008 OVC015 27/27 A2996 RMK AO2 T02710270
KT20 191355Z AUTO 16005KT 7SM OVC008 27/27 A2996 RMK AO2 T02680268
KT20 191335Z AUTO 16004KT 5SM BR OVC008 27/27 A2996 RMK AO2 T02650265
KT20 191315Z AUTO 14004KT 5SM BR BKN008 OVC013 26/26 A2995 RMK AO2 T02630263
KT20 191255Z AUTO 15003KT 4SM BR BKN008 BKN018 OVC030 26/26 A2995 RMK AO2 T02600260
KT20 191235Z AUTO 17004KT 5SM BR OVC008 26/26 A2995 RMK AO2 T02600260
KT20 191215Z AUTO 17004KT 7SM OVC008 26/26 A2995 RMK AO2 T02600260
KT20 191155Z AUTO 16003KT 5SM BR BKN008 OVC012 26/26 A2994 RMK AO2 T02600260 10263 20256
KT20 191135Z AUTO 16004KT 5SM BR BKN008 OVC013 26/26 A2993 RMK AO2 T02600260
KT20 191115Z AUTO 17004KT 5SM BR BKN008 BKN013 OVC028 26/26 A2993 RMK AO2 T02600260
KT20 191055Z AUTO 16004KT 7SM BKN007 OVC012 26/26 A2993 RMK AO2 T02600260
KT20 191035Z AUTO 16004KT 7SM BKN008 OVC013 26/26 A2993 RMK AO2 T02620262
KT20 191015Z AUTO 16004KT 7SM BKN006 OVC011 26/26 A2993 RMK AO2 T02630263
KT20 190955Z AUTO 15005KT 7SM OVC008 26/26 A2992 RMK AO2 T02620262
KT20 190935Z AUTO 16005KT 7SM OVC008 26/26 A2992 RMK AO2 T02610261
KT20 190915Z AUTO 16004KT 7SM OVC008 26/26 A2992 RMK AO2 T02600260
KT20 190855Z AUTO 13004KT 7SM OVC008 26/26 A2992 RMK AO2 T02600260
KT20 190835Z AUTO 16003KT 7SM OVC010 26/26 A2992 RMK AO2 T02580258
KT20 190815Z AUTO 19004KT 7SM OVC010 26/26 A2992 RMK AO2 T02570257
KT20 190755Z AUTO 20003KT 7SM OVC010 26/26 A2992 RMK AO2 T02600260
KT20 190735Z AUTO 20004KT 7SM OVC008 26/26 A2992 RMK AO2 T02600260
KT20 190715Z AUTO 19005KT 7SM OVC008 26/26 A2992 RMK AO2 T02610261
KT20 190655Z AUTO 20005KT 7SM OVC008 26/26 A2992 RMK AO2 T02630263
KT20 190635Z AUTO 19004KT 10SM OVC010 26/26 A2992 RMK AO2 T02610261
KT20 190615Z AUTO 19003KT 10SM OVC010 26/26 A2992 RMK AO2 T02600260
KT20 190555Z AUTO 19004KT 10SM OVC010 26/26 A2992 RMK AO2 T02610261
KT20 190535Z AUTO 00000KT 10SM OVC010 26/26 A2992 RMK AO2 T02550255
KT20 190515Z AUTO 00000KT 10SM BKN012 26/26 A2992 RMK AO2 T02570256
KT20 190455Z AUTO 14003KT 10SM SCT012 26/26 A2993 RMK AO2 T02570255
KT20 190435Z AUTO 15004KT 10SM CLR 26/26 A2992 RMK AO2 T02610255
KT20 190415Z AUTO 16005KT 10SM CLR 26/25 A2992 RMK AO2 T02620253
KT20 190355Z AUTO 17006KT 10SM CLR 26/25 A2992 RMK AO2 T02640252
KT20 190335Z AUTO 15006KT 10SM CLR 27/26 A2993 RMK AO2 T02670255
KT20 190315Z AUTO 15007KT 10SM CLR 27/26 A2993 RMK AO2 T02700257
KT20 190255Z AUTO 15009KT 10SM CLR 27/26 A2993 RMK AO2 T02710260
KT20 190235Z AUTO 14008KT 10SM CLR 27/26 A2993 RMK AO2 T02730262
KT20 190215Z AUTO 13004KT 10SM CLR 27/26 A2992 RMK AO2 T02730262
KT20 190155Z AUTO 13005KT 10SM CLR 27/26 A2992 RMK AO2 T02740260
KT20 190135Z AUTO 13006KT 10SM CLR 28/26 A2991 RMK AO2 T02750258
KT20 190115Z AUTO 13006KT 10SM CLR A2990 RMK AO2
KT20 190055Z AUTO 14004KT 10SM CLR A2990 RMK AO2
KT20 190035Z AUTO 13005KT 10SM CLR A2990 RMK AO2
KT20 190015Z AUTO 14005KT 10SM CLR A2990 RMK AO2
KT20 182355Z AUTO 13007KT 10SM CLR A2990 RMK AO2
KT20 182335Z AUTO 14008KT 10SM CLR A2990 RMK AO2
KT20 182315Z AUTO 14009KT 10SM CLR A2990 RMK AO2 LTG DSNT NE AND E
KT20 182255Z AUTO 14007KT 10SM CLR 32/24 A2990 RMK AO2 T03150244